Terminal Aerodrome Forecast
Issued by NWS

Home | Current Version | Previous Version | Text Only | Print | Product List | Glossary On
Versions: 1 2 3 4 5 6 7 8 9 10 11 12 13 14 15
000
FTUS42 TJSJ 231840 AAA
TAFJMZ
TAF AMD
TJMZ 231840Z 2319/2418 27010KT P6SM VCSH SCT030 SCT060
     FM232300 06005KT P6SM FEW060
     FM241400 27015KT P6SM SCT040
      AMD NOT SKED=

USA.gov is the U.S. government's official web portal to all federal, state and local government web resources and services.